Time;durP1;ratioP1;P1;durP2;ratioP2;P2;SDS_P1;SDS_P2;PMS_P1;PMS_P2;Temp;Humidity;BMP_temperature;BMP_pressure;BME280_temperature;BME280_humidity;BME280_pressure;Samples;Min_cycle;Max_cycle;Signal;HPM_P1;HPM_P2
2021/10/15 00:00:17;;;;;;;13.43;6.23;;;;;;;11.00;77.27;101612.72;2106167;28;20031;-70
2021/10/15 00:01:17;;;;;;;10.67;8.57;;;;;;;10.98;76.40;101614.53;2106327;28;20032;-69
2021/10/15 00:02:17;;;;;;;16.67;10.97;;;;;;;10.98;76.73;101611.06;2106172;28;20770;-69
2021/10/15 00:03:17;;;;;;;13.90;5.17;;;;;;;10.95;77.14;101612.03;2106123;28;20024;-69
2021/10/15 00:04:18;;;;;;;12.23;6.37;;;;;;;10.95;77.89;101614.63;2106285;28;20039;-70
2021/10/15 00:05:18;;;;;;;8.83;6.80;;;;;;;10.93;77.26;101608.59;2106194;28;20035;-68
2021/10/15 00:06:18;;;;;;;9.97;7.33;;;;;;;10.91;76.98;101607.78;2106266;28;20073;-70
2021/10/15 00:07:19;;;;;;;6.20;5.60;;;;;;;10.90;77.75;101606.06;2106141;28;20036;-70
2021/10/15 00:08:19;;;;;;;14.67;7.17;;;;;;;10.88;78.01;101607.91;2106096;28;20032;-68
2021/10/15 00:09:19;;;;;;;11.07;6.93;;;;;;;10.87;78.54;101607.03;2106282;28;20031;-68
2021/10/15 00:10:20;;;;;;;10.63;6.97;;;;;;;10.87;78.16;101608.78;2106365;28;20067;-67
2021/10/15 00:11:20;;;;;;;7.47;6.77;;;;;;;10.85;78.29;101601.03;2106321;28;20032;-70
2021/10/15 00:12:20;;;;;;;9.00;7.73;;;;;;;10.86;78.84;101602.72;2105551;28;20024;-68
2021/10/15 00:13:20;;;;;;;10.17;7.30;;;;;;;10.85;77.95;101597.53;2105588;28;20052;-70
2021/10/15 00:14:21;;;;;;;12.40;6.07;;;;;;;10.82;78.96;101607.16;2106855;28;20158;-69
2021/10/15 00:15:21;;;;;;;9.27;7.10;;;;;;;10.81;79.13;101597.63;2107200;28;20119;-70
2021/10/15 00:16:21;;;;;;;7.37;6.63;;;;;;;10.79;78.19;101594.22;2107873;28;20036;-70
2021/10/15 00:17:22;;;;;;;10.23;6.60;;;;;;;10.82;78.58;101598.50;2107914;28;20024;-69
2021/10/15 00:18:22;;;;;;;8.82;7.25;;;;;;;10.81;79.21;101596.75;2107079;28;20485;-66
2021/10/15 00:19:22;;;;;;;9.33;6.77;;;;;;;10.79;78.82;101591.63;2107203;28;20565;-69
2021/10/15 00:20:23;;;;;;;11.07;7.23;;;;;;;10.77;79.49;101598.63;2098810;28;20059;-69
2021/10/15 00:21:23;;;;;;;9.87;7.27;;;;;;;10.76;79.36;101593.47;2107233;28;20043;-69
2021/10/15 00:22:23;;;;;;;13.07;6.87;;;;;;;10.76;79.55;101588.22;2107813;28;20024;-68
2021/10/15 00:23:23;;;;;;;9.70;6.93;;;;;;;10.73;79.79;101589.19;2107862;28;20081;-69
2021/10/15 00:24:24;;;;;;;12.40;6.73;;;;;;;10.72;80.57;101577.03;2107759;28;20018;-69
2021/10/15 00:25:24;;;;;;;9.23;6.73;;;;;;;10.70;79.77;101578.84;2107812;28;20034;-68
2021/10/15 00:26:24;;;;;;;11.57;7.20;;;;;;;10.70;80.13;101584.06;2107601;28;20024;-69
2021/10/15 00:27:25;;;;;;;8.37;6.40;;;;;;;10.69;80.08;101577.13;2106929;28;20021;-67
2021/10/15 00:28:25;;;;;;;14.02;6.60;;;;;;;10.68;80.28;101578.03;2106939;28;20024;-68
2021/10/15 00:29:26;;;;;;;7.68;5.35;;;;;;;10.67;80.83;101576.31;2107420;28;20028;-68
2021/10/15 00:30:26;;;;;;;10.77;7.70;;;;;;;10.67;81.17;101574.56;2107648;28;20387;-70
2021/10/15 00:31:26;;;;;;;9.77;5.90;;;;;;;10.67;79.86;101568.47;2107452;28;20490;-69
2021/10/15 00:32:27;;;;;;;12.70;6.93;;;;;;;10.64;80.29;101572.06;2106737;28;20119;-68
2021/10/15 00:33:27;;;;;;;14.17;7.63;;;;;;;10.64;80.76;101574.66;2106998;28;20053;-71
2021/10/15 00:34:27;;;;;;;11.73;6.53;;;;;;;10.63;80.85;101566.88;2107459;28;20020;-71
2021/10/15 00:35:27;;;;;;;9.43;7.40;;;;;;;10.63;81.19;101572.09;2107452;28;20087;-67
2021/10/15 00:36:28;;;;;;;13.97;6.63;;;;;;;10.60;81.27;101562.59;2106878;28;20518;-70
2021/10/15 00:37:28;;;;;;;8.00;5.80;;;;;;;10.59;81.36;101560.03;2106800;28;20020;-69
2021/10/15 00:38:28;;;;;;;9.40;6.45;;;;;;;10.58;81.22;101564.44;2106635;28;20061;-67
2021/10/15 00:39:28;;;;;;;11.10;7.57;;;;;;;10.55;81.59;101557.53;2106838;28;20307;-68
2021/10/15 00:40:29;;;;;;;14.00;6.90;;;;;;;10.56;81.18;101558.38;2106687;28;20023;-69
2021/10/15 00:41:29;;;;;;;12.93;7.10;;;;;;;10.56;81.41;101555.78;2106790;28;20027;-68
2021/10/15 00:42:29;;;;;;;13.07;5.10;;;;;;;10.54;81.76;101558.44;2106666;28;20012;-69
2021/10/15 00:43:29;;;;;;;11.17;6.33;;;;;;;10.52;81.71;101560.25;2098350;28;20052;-69
2021/10/15 00:44:30;;;;;;;8.67;6.47;;;;;;;10.52;81.18;101562.84;2106607;28;20023;-70
2021/10/15 00:45:30;;;;;;;11.23;6.40;;;;;;;10.52;81.56;101555.03;2107491;28;20039;-70
2021/10/15 00:46:31;;;;;;;11.63;6.97;;;;;;;10.50;81.82;101551.59;2107324;28;20028;-70
2021/10/15 00:47:31;;;;;;;;;;;;;;;10.48;82.06;101550.81;2108095;28;20499;-71
2021/10/15 00:48:32;;;;;;;12.32;6.75;;;;;;;10.46;83.00;101549.97;2107260;28;19958;-70
2021/10/15 00:49:32;;;;;;;9.23;5.10;;;;;;;10.45;82.31;101543.06;2107242;28;20032;-71
2021/10/15 00:50:33;;;;;;;6.40;5.47;;;;;;;10.43;82.40;101544.81;2107192;28;20024;-66
2021/10/15 00:51:33;;;;;;;11.68;6.97;;;;;;;10.42;82.46;101543.13;2107465;28;19957;-69
2021/10/15 00:52:34;;;;;;;14.57;7.03;;;;;;;10.39;82.67;101541.47;2106644;28;20027;-69
2021/10/15 00:53:35;;;;;;;9.32;4.45;;;;;;;10.39;82.52;101540.59;2106487;28;20478;-68
2021/10/15 00:54:36;;;;;;;9.47;6.67;;;;;;;10.39;82.18;101538.00;2106717;28;20045;-68
2021/10/15 00:55:36;;;;;;;11.43;5.15;;;;;;;10.37;82.81;101537.19;2107239;28;20028;-68
2021/10/15 00:56:37;;;;;;;9.30;6.25;;;;;;;10.36;82.86;101541.56;2107074;28;20088;-70
2021/10/15 00:57:37;;;;;;;9.43;5.97;;;;;;;10.33;83.17;101538.19;2106467;28;20070;-70
2021/10/15 00:58:37;;;;;;;12.00;7.13;;;;;;;10.31;83.06;101536.47;2106641;28;20043;-70
2021/10/15 00:59:38;;;;;;;12.83;8.20;;;;;;;10.31;83.90;101533.84;2107148;28;20077;-69
2021/10/15 01:00:38;;;;;;;9.40;5.68;;;;;;;10.31;83.27;101531.25;2107330;28;20400;-70
2021/10/15 01:01:39;;;;;;;7.43;4.23;;;;;;;10.33;83.35;101532.97;2106680;28;20047;-68
2021/10/15 01:02:42;;;;;;;8.75;5.63;;;;;;;10.33;82.80;101527.75;2106375;28;20048;-69
2021/10/15 01:03:42;;;;;;;10.70;6.53;;;;;;;10.34;83.54;101534.69;2107075;28;20038;-70
2021/10/15 01:04:43;;;;;;;8.80;5.00;;;;;;;10.31;83.68;101526.03;2106460;28;20520;-70
2021/10/15 01:05:43;;;;;;;10.80;6.40;;;;;;;10.29;83.59;101527.84;2106568;28;20037;-69
2021/10/15 01:06:43;;;;;;;10.53;4.47;;;;;;;10.31;83.15;101525.19;2107425;28;20035;-70
2021/10/15 01:07:45;;;;;;;9.30;3.97;;;;;;;10.31;83.26;101531.25;2107570;28;20052;-72
2021/10/15 01:08:47;;;;;;;8.63;5.28;;;;;;;10.30;83.64;101523.50;2106934;28;20286;-70
2021/10/15 01:09:47;;;;;;;10.80;5.57;;;;;;;10.28;83.41;101523.53;2107199;28;20427;-70
2021/10/15 01:10:48;;;;;;;8.50;5.60;;;;;;;10.27;83.65;101519.19;2107041;28;20104;-71
2021/10/15 01:11:50;;;;;;;9.55;4.55;;;;;;;10.25;83.80;101521.00;2107170;28;20115;-70
2021/10/15 01:12:52;;;;;;;12.38;5.60;;;;;;;10.26;84.00;101519.25;2107034;28;20028;-70
2021/10/15 01:13:53;;;;;;;6.78;5.50;;;;;;;10.25;83.99;101520.16;2107062;28;20103;-71
2021/10/15 01:14:53;;;;;;;9.88;4.80;;;;;;;10.23;83.70;101506.31;2106326;28;20028;-71
2021/10/15 01:16:04;;;;;;;11.50;5.97;;;;;;;10.24;83.83;101519.31;2106375;28;20020;-69
2021/10/15 01:17:06;;;;;;;10.77;5.82;;;;;;;10.20;83.27;101515.09;2106933;28;20036;-70
2021/10/15 01:18:10;;;;;;;;;;;;;;;10.21;83.94;101516.78;2108007;28;20039;-71
2021/10/15 01:19:11;;;;;;;11.55;5.55;;;;;;;10.20;83.65;101504.66;2106196;28;20273;-71
2021/10/15 01:20:11;;;;;;;9.25;4.40;;;;;;;10.20;83.67;101507.25;2106405;28;20476;-69
2021/10/15 01:21:12;;;;;;;11.60;6.53;;;;;;;10.20;83.54;101512.47;2106917;28;20028;-67
2021/10/15 01:22:12;;;;;;;9.40;5.82;;;;;;;10.18;83.35;101509.06;2107061;28;20055;-70
2021/10/15 01:23:12;;;;;;;13.70;7.03;;;;;;;10.18;83.41;101509.06;2106937;28;20457;-68
2021/10/15 01:24:14;;;;;;;11.30;5.40;;;;;;;10.18;83.55;101507.31;2107099;28;20096;-71
2021/10/15 01:25:15;;;;;;;8.98;6.03;;;;;;;10.19;83.32;101510.75;2106285;28;20399;-72
2021/10/15 01:26:16;;;;;;;9.15;4.60;;;;;;;10.17;83.97;101507.34;2106815;28;20050;-70
2021/10/15 01:27:16;;;;;;;8.68;4.63;;;;;;;10.13;83.74;101500.53;2107191;28;20031;-70
2021/10/15 01:28:16;;;;;;;9.80;4.87;;;;;;;10.13;84.03;101509.19;2106473;28;20042;-70
2021/10/15 01:29:17;;;;;;;8.30;4.47;;;;;;;10.12;83.75;101498.78;2106325;28;20055;-71
2021/10/15 01:30:17;;;;;;;11.30;5.03;;;;;;;10.12;83.84;101499.66;2106398;28;20502;-69
2021/10/15 01:31:17;;;;;;;11.43;6.40;;;;;;;10.12;84.27;101496.19;2106249;28;20043;-68
2021/10/15 01:32:19;;;;;;;8.87;4.60;;;;;;;10.11;83.18;101494.47;2106951;28;20428;-69
2021/10/15 01:33:21;;;;;;;10.13;4.53;;;;;;;10.11;83.30;101497.97;2107030;28;20112;-69
2021/10/15 01:34:21;;;;;;;;;;;;;;;10.12;83.79;101498.78;2107918;28;20040;-69
2021/10/15 01:35:21;;;;;;;9.00;4.53;;;;;;;10.10;84.30;101500.59;2106482;28;20350;-69
2021/10/15 01:36:22;;;;;;;8.50;5.33;;;;;;;10.10;84.20;101496.25;2106702;28;20027;-70
2021/10/15 01:37:22;;;;;;;;;;;;;;;10.09;83.52;101494.53;2107852;28;20362;-70
2021/10/15 01:38:23;;;;;;;15.45;6.50;;;;;;;10.09;83.72;101494.53;2106769;28;19993;-69
2021/10/15 01:39:23;;;;;;;13.87;4.43;;;;;;;10.08;83.95;101492.81;2106982;28;20032;-68
2021/10/15 01:40:23;;;;;;;12.17;5.57;;;;;;;10.09;83.68;101493.69;2106807;28;20630;-67
2021/10/15 01:41:23;;;;;;;12.70;5.25;;;;;;;10.08;83.63;101491.97;2106249;28;20443;-69
2021/10/15 01:43:42;;;;;;;9.68;4.53;;;;;;;10.07;83.71;101490.25;2107309;28;20070;-67
2021/10/15 01:44:43;;;;;;;7.00;4.37;;;;;;;10.08;83.77;101484.13;2106182;28;20020;-69
2021/10/15 01:45:43;;;;;;;8.73;6.10;;;;;;;10.07;83.77;101479.81;2105996;28;20026;-69
2021/10/15 01:46:43;;;;;;;7.43;4.83;;;;;;;10.07;84.08;101488.53;2106931;28;20073;-68
2021/10/15 01:47:43;;;;;;;11.00;5.77;;;;;;;10.05;84.13;101483.34;2106646;28;20027;-67
2021/10/15 01:48:45;;;;;;;9.43;5.60;;;;;;;10.06;83.62;101478.97;2106730;28;20492;-68
2021/10/15 01:49:45;;;;;;;10.00;5.80;;;;;;;10.05;83.80;101483.34;2106672;28;20477;-69
2021/10/15 01:50:46;;;;;;;11.50;6.07;;;;;;;10.07;84.22;101477.22;2106705;28;20048;-71
2021/10/15 01:51:47;;;;;;;9.70;5.77;;;;;;;10.08;84.21;101482.41;2106684;28;20064;-69
2021/10/15 01:52:48;;;;;;;12.83;6.27;;;;;;;10.05;83.81;101483.34;2106704;28;20008;-69
2021/10/15 01:53:48;;;;;;;12.02;5.55;;;;;;;10.05;84.02;101483.34;2106829;28;20115;-68
2021/10/15 01:54:49;;;;;;;8.63;5.53;;;;;;;10.04;84.12;101479.03;2106802;28;20024;-70
2021/10/15 01:55:49;;;;;;;9.47;4.97;;;;;;;10.05;84.33;101482.47;2106982;28;20036;-70
2021/10/15 01:56:49;;;;;;;8.43;4.63;;;;;;;10.05;84.44;101483.34;2107037;28;20392;-69
2021/10/15 01:57:49;;;;;;;12.07;5.20;;;;;;;10.04;83.70;101480.78;2107012;28;20491;-69
2021/10/15 01:58:50;;;;;;;7.73;4.87;;;;;;;10.04;84.05;101470.34;2107203;28;20024;-69
2021/10/15 01:59:50;;;;;;;8.97;4.10;;;;;;;10.04;83.79;101475.56;2107149;28;20034;-70
2021/10/15 02:00:50;;;;;;;14.80;5.43;;;;;;;10.05;83.54;101472.91;2106590;28;20024;-68
2021/10/15 02:01:51;;;;;;;8.67;4.70;;;;;;;10.05;83.78;101467.69;2106786;28;20024;-69
2021/10/15 02:02:51;;;;;;;12.68;6.45;;;;;;;10.06;83.82;101468.53;2106869;28;20017;-69
2021/10/15 02:03:51;;;;;;;8.43;5.43;;;;;;;10.07;84.18;101465.06;2106664;28;20077;-70
2021/10/15 02:04:52;;;;;;;11.47;4.90;;;;;;;10.07;84.05;101472.00;2106753;28;20039;-70
2021/10/15 02:05:52;;;;;;;9.52;4.88;;;;;;;10.05;84.38;101462.47;2106743;28;20031;-69
2021/10/15 02:06:52;;;;;;;13.90;5.40;;;;;;;10.05;84.23;101467.69;2106108;28;20028;-69
2021/10/15 02:07:53;;;;;;;7.60;4.27;;;;;;;10.07;84.43;101469.41;2106351;28;20035;-70
2021/10/15 02:08:53;;;;;;;9.00;4.78;;;;;;;10.04;84.49;101466.00;2107048;28;20039;-69
2021/10/15 02:09:53;;;;;;;16.77;6.33;;;;;;;10.02;84.06;101462.56;2107056;28;20028;-68
2021/10/15 02:10:54;;;;;;;9.07;3.97;;;;;;;10.04;84.06;101460.78;2106278;28;20118;-69
2021/10/15 02:11:54;;;;;;;6.67;4.30;;;;;;;10.04;84.43;101455.56;2106519;28;20128;-70
2021/10/15 02:12:54;;;;;;;6.10;3.63;;;;;;;10.04;84.79;101460.78;2107059;28;20497;-70
2021/10/15 02:13:55;;;;;;;9.47;4.93;;;;;;;10.05;84.21;101456.41;2107038;28;20457;-70
2021/10/15 02:14:55;;;;;;;10.70;5.07;;;;;;;10.05;84.52;101452.06;2106255;28;20051;-69
2021/10/15 02:15:55;;;;;;;11.13;5.40;;;;;;;10.05;84.36;101459.88;2106427;28;20036;-70
2021/10/15 02:16:56;;;;;;;12.67;5.70;;;;;;;10.05;84.25;101457.28;2106770;28;20077;-73
2021/10/15 02:17:56;;;;;;;10.68;5.28;;;;;;;10.09;84.70;101454.56;2106553;28;20114;-70
2021/10/15 02:18:56;;;;;;;8.20;4.77;;;;;;;10.07;84.72;101448.53;2106154;28;20067;-69
2021/10/15 02:19:57;;;;;;;10.90;5.37;;;;;;;10.07;84.09;101454.63;2106171;28;20118;-68
2021/10/15 02:20:57;;;;;;;9.20;5.10;;;;;;;10.07;84.65;101451.16;2106030;28;20061;-69
2021/10/15 02:21:57;;;;;;;9.60;5.60;;;;;;;10.07;84.88;101451.16;2106274;28;20388;-70
2021/10/15 02:22:58;;;;;;;14.50;6.20;;;;;;;10.05;85.04;101457.28;2106801;28;20097;-71
2021/10/15 02:23:58;;;;;;;12.68;5.75;;;;;;;10.08;84.95;101452.84;2105749;28;20024;-69
2021/10/15 02:24:59;;;;;;;7.07;4.83;;;;;;;10.07;85.09;101448.53;2097887;28;20024;-69
2021/10/15 02:25:59;;;;;;;8.93;4.68;;;;;;;10.07;85.12;101449.41;2097864;28;20033;-71
2021/10/15 02:27:00;;;;;;;12.87;5.87;;;;;;;10.09;85.38;101451.97;2105904;28;20090;-70
2021/10/15 02:28:00;;;;;;;8.97;5.70;;;;;;;10.09;84.50;101451.97;2105853;28;20024;-70
2021/10/15 02:29:00;;;;;;;11.20;6.03;;;;;;;10.11;85.12;101455.38;2105773;28;20020;-71
2021/10/15 02:30:00;;;;;;;12.55;5.80;;;;;;;10.11;85.08;101453.63;2106147;28;20027;-71
2021/10/15 02:31:01;;;;;;;9.67;5.53;;;;;;;10.12;85.78;101457.06;2106604;28;20024;-70
2021/10/15 02:32:01;;;;;;;13.17;4.43;;;;;;;10.12;85.23;101451.84;2106607;28;19918;-71
2021/10/15 02:33:02;;;;;;;8.93;5.17;;;;;;;10.12;85.41;101451.84;2106297;28;20073;-71
2021/10/15 02:34:03;;;;;;;10.43;5.43;;;;;;;10.14;85.34;101450.06;2106513;28;20038;-69
2021/10/15 02:35:07;;;;;;;11.13;5.93;;;;;;;10.16;85.29;101443.03;2106120;28;20505;-69
2021/10/15 02:36:07;;;;;;;11.70;6.13;;;;;;;10.16;85.21;101437.81;2106283;28;20077;-69
2021/10/15 02:37:07;;;;;;;13.57;6.43;;;;;;;10.17;85.33;101435.16;2106255;28;20065;-70
2021/10/15 02:38:08;;;;;;;10.90;5.33;;;;;;;10.18;85.85;101433.41;2106423;28;20027;-70
2021/10/15 02:39:08;;;;;;;12.20;6.73;;;;;;;10.18;85.39;101436.03;2106334;28;20067;-69
2021/10/15 02:40:09;;;;;;;9.40;5.40;;;;;;;10.18;86.15;101430.81;2106594;28;20027;-69
2021/10/15 02:41:09;;;;;;;7.43;5.30;;;;;;;10.20;86.24;101428.16;2106262;28;20020;-70
2021/10/15 02:42:10;;;;;;;12.77;8.07;;;;;;;10.22;86.14;101432.41;2106451;28;20372;-69
2021/10/15 02:43:10;;;;;;;8.30;5.73;;;;;;;10.22;86.02;101432.41;2105728;28;20384;-70
2021/10/15 02:44:12;;;;;;;10.50;6.90;;;;;;;10.24;86.18;101440.19;2105873;28;20047;-69
2021/10/15 02:45:12;;;;;;;11.18;7.05;;;;;;;10.23;85.70;101434.13;2105659;28;20408;-69
2021/10/15 02:46:15;;;;;;;9.63;6.10;;;;;;;10.25;85.92;101427.09;2105692;28;20026;-69
2021/10/15 02:47:15;;;;;;;11.23;5.18;;;;;;;10.25;86.20;101429.72;2106024;28;20039;-69
2021/10/15 02:48:15;;;;;;;10.07;7.60;;;;;;;10.26;85.97;101428.81;2106322;28;20531;-69
2021/10/15 02:49:15;;;;;;;12.13;6.77;;;;;;;10.26;85.27;101434.03;2106573;28;20114;-70
2021/10/15 02:50:16;;;;;;;10.77;7.00;;;;;;;10.27;85.92;101434.88;2106622;28;20076;-70
2021/10/15 02:51:16;;;;;;;12.60;8.60;;;;;;;10.28;85.74;101431.38;2106373;28;20516;-69
2021/10/15 02:52:17;;;;;;;9.83;7.00;;;;;;;10.28;86.15;101433.97;2106341;28;20461;-70
2021/10/15 02:53:17;;;;;;;8.43;6.25;;;;;;;10.27;86.15;101435.72;2106369;28;20468;-70
2021/10/15 02:54:18;;;;;;;8.60;5.00;;;;;;;10.26;86.79;101434.03;2106517;28;20377;-70
2021/10/15 02:55:18;;;;;;;9.30;5.30;;;;;;;10.26;86.24;101428.81;2106539;28;20471;-70
2021/10/15 02:56:18;;;;;;;15.17;6.97;;;;;;;10.29;86.62;101433.94;2106249;28;20028;-69
2021/10/15 02:57:19;;;;;;;9.50;6.50;;;;;;;10.30;86.70;101424.34;2106302;28;20020;-68
2021/10/15 02:58:19;;;;;;;14.43;7.83;;;;;;;10.31;86.26;101426.06;2106140;28;20024;-68
2021/10/15 02:59:19;;;;;;;9.60;6.60;;;;;;;10.31;86.31;101421.69;2106182;28;20027;-69
2021/10/15 03:00:19;;;;;;;8.70;6.43;;;;;;;10.33;86.53;101424.25;2106269;28;20024;-70
2021/10/15 03:01:20;;;;;;;10.57;7.43;;;;;;;10.31;86.18;101420.84;2106342;28;20020;-68
2021/10/15 03:02:20;;;;;;;11.87;6.27;;;;;;;10.31;86.59;101418.22;2106277;28;20086;-68
2021/10/15 03:03:20;;;;;;;9.60;4.70;;;;;;;10.30;86.78;101419.97;2106484;28;20040;-68
2021/10/15 03:04:20;;;;;;;7.47;5.00;;;;;;;10.29;86.31;101415.66;2105951;28;20032;-68
2021/10/15 03:05:21;;;;;;;13.53;6.63;;;;;;;10.30;86.32;101419.97;2106071;28;20036;-69
2021/10/15 03:06:21;;;;;;;12.63;6.03;;;;;;;10.31;86.29;101410.41;2106306;28;20031;-67
2021/10/15 03:07:21;;;;;;;9.27;6.97;;;;;;;10.30;86.11;101419.97;2106368;28;20024;-69
2021/10/15 03:08:22;;;;;;;9.90;8.30;;;;;;;10.31;86.90;101411.25;2106466;28;20064;-69
2021/10/15 03:09:22;;;;;;;9.73;7.17;;;;;;;10.31;86.71;101416.47;2106551;28;20020;-68
2021/10/15 03:10:22;;;;;;;12.33;6.97;;;;;;;10.30;86.71;101409.53;2106230;28;20290;-69
2021/10/15 03:11:22;;;;;;;11.70;6.20;;;;;;;10.30;86.77;101414.75;2106458;28;20444;-69
2021/10/15 03:12:23;;;;;;;15.80;6.10;;;;;;;10.31;86.50;101411.25;2105510;28;20032;-69
2021/10/15 03:13:23;;;;;;;8.03;5.50;;;;;;;10.31;86.22;101411.25;2105661;28;20068;-70
2021/10/15 03:14:23;;;;;;;12.15;6.90;;;;;;;10.35;86.46;101408.53;2106204;28;20036;-71
2021/10/15 03:15:23;;;;;;;9.70;6.27;;;;;;;10.35;86.23;101412.00;2106231;28;20031;-69
2021/10/15 03:16:24;;;;;;;11.20;6.73;;;;;;;10.37;86.73;101409.34;2106221;28;20028;-71
2021/10/15 03:17:24;;;;;;;9.90;6.57;;;;;;;10.35;86.85;101403.31;2106206;28;20497;-68
2021/10/15 03:18:24;;;;;;;9.17;5.37;;;;;;;10.36;86.69;101399.81;2105691;28;20034;-71
2021/10/15 03:19:25;;;;;;;10.57;6.03;;;;;;;10.37;86.86;101404.13;2105890;28;20023;-69
2021/10/15 03:20:25;;;;;;;9.13;7.65;;;;;;;10.38;86.90;101396.25;2106220;28;20043;-68
2021/10/15 03:21:25;;;;;;;11.43;7.23;;;;;;;10.39;86.94;101399.72;2105487;28;20531;-70
2021/10/15 03:22:25;;;;;;;11.90;6.60;;;;;;;10.39;86.76;101399.72;2105468;28;20430;-67
2021/10/15 03:23:26;;;;;;;12.93;6.83;;;;;;;10.38;87.20;101400.63;2106232;28;20027;-68
2021/10/15 03:24:26;;;;;;;10.43;7.70;;;;;;;10.38;87.03;101398.88;2106131;28;20059;-69
2021/10/15 03:25:26;;;;;;;11.17;7.63;;;;;;;10.41;86.88;101401.34;2105745;28;20503;-72
2021/10/15 03:26:26;;;;;;;15.77;8.83;;;;;;;10.42;86.92;101407.44;2105625;28;20062;-70
2021/10/15 03:27:27;;;;;;;12.70;5.73;;;;;;;10.42;87.37;101402.22;2105478;28;20020;-70
2021/10/15 03:28:27;;;;;;;14.00;7.53;;;;;;;10.41;86.89;101395.31;2106358;28;20024;-68
2021/10/15 03:29:27;;;;;;;11.60;7.47;;;;;;;10.40;86.89;101399.66;2106559;28;20114;-70
2021/10/15 03:30:28;;;;;;;14.97;6.07;;;;;;;10.42;87.13;101397.88;2106598;28;20354;-70
2021/10/15 03:31:28;;;;;;;13.80;8.23;;;;;;;10.42;86.71;101391.78;2106551;28;20020;-69
2021/10/15 03:32:28;;;;;;;11.83;5.97;;;;;;;10.41;87.34;101395.31;2106038;28;20493;-71
2021/10/15 03:33:29;;;;;;;7.13;4.93;;;;;;;10.42;86.93;101391.78;2105654;28;20481;-70
2021/10/15 03:34:29;;;;;;;11.90;7.37;;;;;;;10.41;86.55;101392.69;2106073;28;20020;-67
2021/10/15 03:35:29;;;;;;;9.10;6.90;;;;;;;10.45;86.92;101391.72;2105901;28;20084;-69
2021/10/15 03:36:30;;;;;;;14.23;7.37;;;;;;;10.46;86.84;101398.63;2106116;28;20020;-70
2021/10/15 03:37:30;;;;;;;15.77;8.33;;;;;;;10.45;86.82;101396.94;2106229;28;20113;-70
2021/10/15 03:38:30;;;;;;;9.07;7.70;;;;;;;10.45;86.89;101396.94;2106125;28;20094;-70
2021/10/15 03:39:30;;;;;;;10.73;6.53;;;;;;;10.44;87.54;101395.22;2106186;28;20053;-69
2021/10/15 03:40:31;;;;;;;10.53;5.70;;;;;;;10.43;87.48;101394.34;2106073;28;20481;-69
2021/10/15 03:41:31;;;;;;;10.55;7.97;;;;;;;10.43;86.76;101389.13;2106275;28;20516;-71
2021/10/15 03:42:32;;;;;;;11.87;7.40;;;;;;;10.44;87.20;101390.00;2106057;28;20353;-70
2021/10/15 03:43:32;;;;;;;9.20;7.57;;;;;;;10.46;87.13;101385.59;2106205;28;20457;-70
2021/10/15 03:44:32;;;;;;;11.90;8.57;;;;;;;10.47;87.39;101395.13;2105538;28;20397;-69
2021/10/15 03:45:33;;;;;;;11.57;8.80;;;;;;;10.45;86.90;101386.50;2105734;28;20570;-66
2021/10/15 03:46:33;;;;;;;11.13;8.80;;;;;;;10.48;86.96;101388.16;2106491;28;20012;-69
2021/10/15 03:47:34;;;;;;;15.73;8.30;;;;;;;10.48;87.70;101388.16;2106613;28;20020;-70
2021/10/15 03:48:34;;;;;;;11.75;9.18;;;;;;;10.48;87.82;101385.53;2106359;28;20012;-71
2021/10/15 03:49:34;;;;;;;11.13;8.33;;;;;;;10.47;87.46;101389.06;2107836;28;20173;-69
2021/10/15 03:50:35;;;;;;;13.93;8.97;;;;;;;10.45;87.35;101391.72;2107318;28;20028;-71
2021/10/15 03:51:35;;;;;;;13.87;8.87;;;;;;;10.46;87.20;101382.97;2107448;28;20510;-70
2021/10/15 03:52:35;;;;;;;16.53;9.70;;;;;;;10.47;87.96;101389.91;2107879;28;20074;-68
2021/10/15 03:53:36;;;;;;;13.13;7.60;;;;;;;10.45;87.77;101386.50;2107112;28;20024;-70
2021/10/15 03:54:36;;;;;;;10.37;6.10;;;;;;;10.46;87.41;101380.38;2107127;28;20054;-70
2021/10/15 03:55:36;;;;;;;13.50;8.67;;;;;;;10.48;87.88;101380.31;2107125;28;20074;-69
2021/10/15 03:56:37;;;;;;;13.53;7.67;;;;;;;10.48;87.82;101380.31;2107228;28;20027;-71
2021/10/15 03:57:37;;;;;;;31.47;8.10;;;;;;;10.48;88.12;101372.50;2107086;28;20085;-68
2021/10/15 03:58:37;;;;;;;14.70;8.27;;;;;;;10.50;88.23;101376.75;2107315;28;20024;-68
2021/10/15 03:59:38;;;;;;;11.03;7.73;;;;;;;10.48;88.01;101375.97;2107023;28;20024;-69
2021/10/15 04:00:38;;;;;;;12.40;7.87;;;;;;;10.49;87.53;101372.44;2107223;28;20484;-70
2021/10/15 04:01:38;;;;;;;12.17;8.03;;;;;;;10.50;87.94;101379.38;2107741;28;20491;-68
2021/10/15 04:02:41;;;;;;;10.70;7.93;;;;;;;10.53;87.23;101376.66;2107771;28;20077;-69
2021/10/15 04:03:41;;;;;;;8.90;8.00;;;;;;;10.54;87.86;101374.91;2107951;28;20431;-69
2021/10/15 04:04:41;;;;;;;11.50;8.40;;;;;;;10.54;87.76;101365.31;2108061;28;20012;-66
2021/10/15 04:05:41;;;;;;;13.97;9.57;;;;;;;10.55;87.36;101376.59;2107827;28;20059;-69
2021/10/15 04:06:42;;;;;;;9.93;7.27;;;;;;;10.54;87.93;101370.53;2107597;28;20040;-70
2021/10/15 04:07:43;;;;;;;11.07;8.47;;;;;;;10.53;87.86;101358.38;2107728;28;20024;-68
2021/10/15 04:08:43;;;;;;;;;;;;;;;10.53;87.58;101362.75;2107954;28;20115;-69
2021/10/15 04:09:44;;;;;;;16.38;8.02;;;;;;;10.53;88.26;101358.38;2106965;28;19912;-70
2021/10/15 04:10:44;;;;;;;10.70;7.00;;;;;;;10.53;88.31;101358.38;2107718;28;20054;-71
2021/10/15 04:11:44;;;;;;;10.57;6.73;;;;;;;10.52;87.83;101354.09;2107447;28;20083;-67
2021/10/15 04:12:44;;;;;;;10.83;8.40;;;;;;;10.54;87.61;101357.47;2106894;28;20020;-67
2021/10/15 04:13:45;;;;;;;15.03;7.67;;;;;;;10.55;88.05;101353.94;2107009;28;20020;-70
2021/10/15 04:14:45;;;;;;;11.57;7.73;;;;;;;10.58;87.97;101354.75;2107521;28;20024;-70
2021/10/15 04:15:45;;;;;;;13.10;7.60;;;;;;;10.56;88.07;101355.69;2106859;28;20115;-73
2021/10/15 04:16:45;;;;;;;13.50;8.73;;;;;;;10.56;88.03;101358.28;2107086;28;20035;-70
2021/10/15 04:17:46;;;;;;;13.70;7.57;;;;;;;10.56;88.53;101363.50;2107570;28;20031;-70
2021/10/15 04:18:46;;;;;;;11.70;8.47;;;;;;;10.54;88.04;101359.25;2107596;28;20024;-70
2021/10/15 04:19:46;;;;;;;11.83;8.60;;;;;;;10.53;88.52;101357.53;2107695;28;20028;-68
2021/10/15 04:20:47;;;;;;;12.70;7.53;;;;;;;10.52;87.85;101359.31;2107539;28;20459;-70
2021/10/15 04:21:47;;;;;;;9.77;7.87;;;;;;;10.55;88.26;101356.56;2107680;28;20684;-70
2021/10/15 04:22:47;;;;;;;14.30;9.07;;;;;;;10.56;88.12;101355.69;2107688;28;20024;-69
2021/10/15 04:23:47;;;;;;;11.33;7.63;;;;;;;10.55;88.51;101351.34;2107423;28;20024;-72
2021/10/15 04:24:48;;;;;;;11.53;7.87;;;;;;;10.57;87.88;101348.69;2107544;28;20020;-70
2021/10/15 04:25:48;;;;;;;14.87;9.07;;;;;;;10.53;88.28;101347.94;2107586;28;20032;-69
2021/10/15 04:26:48;;;;;;;10.43;7.83;;;;;;;10.54;87.92;101338.38;2107658;28;20078;-69
2021/10/15 04:27:48;;;;;;;10.30;7.53;;;;;;;10.53;87.80;101337.50;2107466;28;20449;-68
2021/10/15 04:28:49;;;;;;;10.50;7.03;;;;;;;10.53;88.33;101337.50;2106732;28;20108;-69
2021/10/15 04:29:49;;;;;;;10.03;6.40;;;;;;;10.52;88.43;101330.59;2106928;28;20444;-70
2021/10/15 04:30:49;;;;;;;11.93;7.20;;;;;;;10.53;88.80;101329.69;2107373;28;20477;-70
2021/10/15 04:31:49;;;;;;;11.23;6.60;;;;;;;10.53;88.01;101329.69;2107344;28;20090;-69
2021/10/15 04:32:50;;;;;;;9.83;6.20;;;;;;;10.53;88.62;101342.72;2106749;28;20034;-69
2021/10/15 04:33:50;;;;;;;10.00;7.23;;;;;;;10.52;88.33;101338.44;2106833;28;20038;-68
2021/10/15 04:34:50;;;;;;;18.60;7.57;;;;;;;10.52;88.07;101333.22;2107247;28;20032;-71
2021/10/15 04:35:51;;;;;;;14.60;6.97;;;;;;;10.51;88.19;101336.69;2107351;28;20500;-69
2021/10/15 04:36:52;;;;;;;9.87;5.47;;;;;;;10.53;88.27;101336.66;2107574;28;20405;-69
2021/10/15 04:37:52;;;;;;;12.00;7.27;;;;;;;10.50;88.67;101337.59;2107307;28;20024;-72
2021/10/15 04:38:52;;;;;;;17.60;6.50;;;;;;;10.50;88.73;101335.00;2107011;28;20153;-72
2021/10/15 04:39:52;;;;;;;9.77;6.40;;;;;;;10.50;88.78;101337.59;2106815;28;20480;-71
2021/10/15 04:40:53;;;;;;;9.20;6.20;;;;;;;10.50;89.00;101345.44;2107358;28;20389;-71